sensor_id;sensor_type;location;lat;lon;timestamp;pressure;altitude;pressure_sealevel;temperature
45393;BMP280;31129;44.810;10.334;2023-06-22T00:00:19;101041.06;;;27.42
45393;BMP280;31129;44.810;10.334;2023-06-22T02:07:22;101084.22;;;26.34
45393;BMP280;31129;44.810;10.334;2023-06-22T02:09:51;101078.91;;;26.03
45393;BMP280;31129;44.810;10.334;2023-06-22T02:12:24;101079.97;;;26.08
45393;BMP280;31129;44.810;10.334;2023-06-22T02:15:11;101072.81;;;25.65
45393;BMP280;31129;44.810;10.334;2023-06-22T02:17:52;101081.28;;;25.57
45393;BMP280;31129;44.810;10.334;2023-06-22T02:20:50;101080.72;;;25.59
45393;BMP280;31129;44.810;10.334;2023-06-22T02:23:22;101077.22;;;25.51
45393;BMP280;31129;44.810;10.334;2023-06-22T02:30:52;101084.06;;;25.57
45393;BMP280;31129;44.810;10.334;2023-06-22T02:37:12;101091.25;;;25.43
45393;BMP280;31129;44.810;10.334;2023-06-22T02:59:25;101080.47;;;25.64
45393;BMP280;31129;44.810;10.334;2023-06-22T04:11:09;101090.78;;;25.22
45393;BMP280;31129;44.810;10.334;2023-06-22T04:49:47;101067.31;;;26.24
45393;BMP280;31129;44.810;10.334;2023-06-22T04:56:35;101069.19;;;26.04
45393;BMP280;31129;44.810;10.334;2023-06-22T04:59:04;101074.66;;;26.19
45393;BMP280;31129;44.810;10.334;2023-06-22T05:01:33;101074.75;;;26.12
45393;BMP280;31129;44.810;10.334;2023-06-22T05:04:36;101075.47;;;25.88
45393;BMP280;31129;44.810;10.334;2023-06-22T05:33:30;101050.34;;;27.35
45393;BMP280;31129;44.810;10.334;2023-06-22T05:59:14;101078.88;;;26.62
45393;BMP280;31129;44.810;10.334;2023-06-22T06:07:16;101073.28;;;26.80
45393;BMP280;31129;44.810;10.334;2023-06-22T06:43:32;101063.38;;;27.49
45393;BMP280;31129;44.810;10.334;2023-06-22T06:57:18;101052.69;;;28.40
45393;BMP280;31129;44.810;10.334;2023-06-22T07:00:06;101047.81;;;28.40
45393;BMP280;31129;44.810;10.334;2023-06-22T07:02:39;101046.72;;;28.36
45393;BMP280;31129;44.810;10.334;2023-06-22T07:05:05;101049.69;;;28.47
45393;BMP280;31129;44.810;10.334;2023-06-22T07:07:32;101050.00;;;28.61
45393;BMP280;31129;44.810;10.334;2023-06-22T07:09:58;101052.06;;;28.60
45393;BMP280;31129;44.810;10.334;2023-06-22T07:12:23;101064.19;;;28.53
45393;BMP280;31129;44.810;10.334;2023-06-22T07:14:48;101064.47;;;28.38
45393;BMP280;31129;44.810;10.334;2023-06-22T07:17:15;101070.53;;;28.35
45393;BMP280;31129;44.810;10.334;2023-06-22T07:19:41;101075.28;;;28.51
45393;BMP280;31129;44.810;10.334;2023-06-22T07:22:07;101077.81;;;28.57
45393;BMP280;31129;44.810;10.334;2023-06-22T07:24:33;101077.63;;;28.64
45393;BMP280;31129;44.810;10.334;2023-06-22T07:26:58;101070.09;;;28.48
45393;BMP280;31129;44.810;10.334;2023-06-22T07:29:25;101073.94;;;28.52
45393;BMP280;31129;44.810;10.334;2023-06-22T07:31:55;101074.25;;;28.56
45393;BMP280;31129;44.810;10.334;2023-06-22T07:34:22;101085.19;;;28.52
45393;BMP280;31129;44.810;10.334;2023-06-22T07:37:23;101082.78;;;28.68
45393;BMP280;31129;44.810;10.334;2023-06-22T07:39:49;101077.78;;;28.76
45393;BMP280;31129;44.810;10.334;2023-06-22T07:42:19;101079.00;;;28.73
45393;BMP280;31129;44.810;10.334;2023-06-22T07:44:54;101073.91;;;29.00
45393;BMP280;31129;44.810;10.334;2023-06-22T07:47:23;101072.41;;;28.99
45393;BMP280;31129;44.810;10.334;2023-06-22T07:49:51;101059.88;;;28.91
45393;BMP280;31129;44.810;10.334;2023-06-22T07:52:37;101047.97;;;29.11
45393;BMP280;31129;44.810;10.334;2023-06-22T07:55:03;101054.44;;;29.24
45393;BMP280;31129;44.810;10.334;2023-06-22T07:57:29;101046.69;;;29.34
45393;BMP280;31129;44.810;10.334;2023-06-22T08:00:06;101040.94;;;29.32
45393;BMP280;31129;44.810;10.334;2023-06-22T08:02:44;101032.28;;;29.39
45393;BMP280;31129;44.810;10.334;2023-06-22T08:05:10;101039.53;;;29.42
45393;BMP280;31129;44.810;10.334;2023-06-22T08:07:36;101048.34;;;29.58
45393;BMP280;31129;44.810;10.334;2023-06-22T08:10:05;101056.06;;;29.57
45393;BMP280;31129;44.810;10.334;2023-06-22T08:12:31;101057.47;;;29.68
45393;BMP280;31129;44.810;10.334;2023-06-22T08:14:57;101065.59;;;29.52
45393;BMP280;31129;44.810;10.334;2023-06-22T08:17:26;101075.06;;;29.78
45393;BMP280;31129;44.810;10.334;2023-06-22T08:19:54;101070.78;;;29.77
45393;BMP280;31129;44.810;10.334;2023-06-22T08:22:20;101067.22;;;29.77
45393;BMP280;31129;44.810;10.334;2023-06-22T08:24:45;101063.06;;;29.78
45393;BMP280;31129;44.810;10.334;2023-06-22T08:27:11;101057.72;;;29.82
45393;BMP280;31129;44.810;10.334;2023-06-22T08:29:42;101042.94;;;29.72
45393;BMP280;31129;44.810;10.334;2023-06-22T08:32:11;101045.97;;;29.85
45393;BMP280;31129;44.810;10.334;2023-06-22T08:34:37;101046.53;;;29.93
45393;BMP280;31129;44.810;10.334;2023-06-22T08:37:08;101029.28;;;29.99
45393;BMP280;31129;44.810;10.334;2023-06-22T08:39:37;101027.69;;;29.96
45393;BMP280;31129;44.810;10.334;2023-06-22T08:42:04;101022.22;;;29.88
45393;BMP280;31129;44.810;10.334;2023-06-22T08:44:33;101030.50;;;29.96
45393;BMP280;31129;44.810;10.334;2023-06-22T08:46:58;101025.34;;;29.92
45393;BMP280;31129;44.810;10.334;2023-06-22T08:49:27;101039.47;;;30.04
45393;BMP280;31129;44.810;10.334;2023-06-22T08:51:52;101029.84;;;30.07
45393;BMP280;31129;44.810;10.334;2023-06-22T08:54:21;101037.38;;;30.26
45393;BMP280;31129;44.810;10.334;2023-06-22T08:56:46;101041.41;;;30.23
45393;BMP280;31129;44.810;10.334;2023-06-22T08:59:12;101050.31;;;30.19
45393;BMP280;31129;44.810;10.334;2023-06-22T09:01:37;101055.63;;;30.25
45393;BMP280;31129;44.810;10.334;2023-06-22T09:04:04;101052.47;;;30.09
45393;BMP280;31129;44.810;10.334;2023-06-22T09:06:31;101056.50;;;30.27
45393;BMP280;31129;44.810;10.334;2023-06-22T09:08:57;101041.13;;;30.19
45393;BMP280;31129;44.810;10.334;2023-06-22T09:11:25;101043.50;;;30.55
45393;BMP280;31129;44.810;10.334;2023-06-22T09:13:50;101044.22;;;30.55
45393;BMP280;31129;44.810;10.334;2023-06-22T09:16:20;101046.81;;;30.63
45393;BMP280;31129;44.810;10.334;2023-06-22T09:18:56;101035.78;;;30.55
45393;BMP280;31129;44.810;10.334;2023-06-22T09:21:36;101027.44;;;30.57
45393;BMP280;31129;44.810;10.334;2023-06-22T09:24:02;101018.88;;;30.67
45393;BMP280;31129;44.810;10.334;2023-06-22T09:26:31;101012.16;;;30.72
45393;BMP280;31129;44.810;10.334;2023-06-22T09:29:00;101014.75;;;30.91
45393;BMP280;31129;44.810;10.334;2023-06-22T09:31:25;101009.81;;;31.03
45393;BMP280;31129;44.810;10.334;2023-06-22T09:33:54;101006.78;;;31.11
45393;BMP280;31129;44.810;10.334;2023-06-22T09:36:23;101011.03;;;31.12
45393;BMP280;31129;44.810;10.334;2023-06-22T09:38:49;101011.78;;;31.36
45393;BMP280;31129;44.810;10.334;2023-06-22T09:41:21;101008.63;;;31.30
45393;BMP280;31129;44.810;10.334;2023-06-22T09:43:47;101005.88;;;31.43
45393;BMP280;31129;44.810;10.334;2023-06-22T09:46:15;101009.94;;;31.40
45393;BMP280;31129;44.810;10.334;2023-06-22T09:48:44;100997.50;;;31.57
45393;BMP280;31129;44.810;10.334;2023-06-22T09:51:15;100998.19;;;31.69
45393;BMP280;31129;44.810;10.334;2023-06-22T09:53:41;100996.84;;;31.70
45393;BMP280;31129;44.810;10.334;2023-06-22T09:56:07;100993.41;;;31.72
45393;BMP280;31129;44.810;10.334;2023-06-22T09:58:43;100997.97;;;31.77
45393;BMP280;31129;44.810;10.334;2023-06-22T10:01:13;101010.00;;;31.77
45393;BMP280;31129;44.810;10.334;2023-06-22T10:03:41;101012.28;;;31.81
45393;BMP280;31129;44.810;10.334;2023-06-22T10:06:07;101012.47;;;31.96
45393;BMP280;31129;44.810;10.334;2023-06-22T10:08:39;101017.53;;;31.86
45393;BMP280;31129;44.810;10.334;2023-06-22T10:11:15;101010.63;;;32.01
45393;BMP280;31129;44.810;10.334;2023-06-22T10:13:44;101008.72;;;32.17
45393;BMP280;31129;44.810;10.334;2023-06-22T10:16:10;101007.16;;;31.77
45393;BMP280;31129;44.810;10.334;2023-06-22T10:18:36;100990.53;;;31.83
45393;BMP280;31129;44.810;10.334;2023-06-22T10:21:01;100987.78;;;31.97
45393;BMP280;31129;44.810;10.334;2023-06-22T10:23:27;100991.34;;;31.97
45393;BMP280;31129;44.810;10.334;2023-06-22T10:25:53;100980.22;;;32.13
45393;BMP280;31129;44.810;10.334;2023-06-22T10:28:21;100983.88;;;32.15
45393;BMP280;31129;44.810;10.334;2023-06-22T10:30:47;100977.19;;;32.09
45393;BMP280;31129;44.810;10.334;2023-06-22T10:33:36;100984.03;;;32.31
45393;BMP280;31129;44.810;10.334;2023-06-22T10:36:02;100981.47;;;32.49
45393;BMP280;31129;44.810;10.334;2023-06-22T10:38:27;100973.13;;;32.51
45393;BMP280;31129;44.810;10.334;2023-06-22T10:40:53;100964.63;;;32.12
45393;BMP280;31129;44.810;10.334;2023-06-22T10:43:18;100962.53;;;32.12
45393;BMP280;31129;44.810;10.334;2023-06-22T10:45:48;100957.94;;;32.19
45393;BMP280;31129;44.810;10.334;2023-06-22T10:48:34;100957.31;;;32.59
45393;BMP280;31129;44.810;10.334;2023-06-22T10:51:14;100951.03;;;32.75
45393;BMP280;31129;44.810;10.334;2023-06-22T10:53:40;100950.81;;;32.84
45393;BMP280;31129;44.810;10.334;2023-06-22T10:56:23;100941.19;;;32.76
45393;BMP280;31129;44.810;10.334;2023-06-22T10:58:49;100946.84;;;32.76
45393;BMP280;31129;44.810;10.334;2023-06-22T11:01:18;100941.63;;;32.70
45393;BMP280;31129;44.810;10.334;2023-06-22T11:03:43;100945.56;;;32.65
45393;BMP280;31129;44.810;10.334;2023-06-22T11:06:12;100952.94;;;32.70
45393;BMP280;31129;44.810;10.334;2023-06-22T11:08:37;100948.72;;;32.85
45393;BMP280;31129;44.810;10.334;2023-06-22T11:11:03;100941.72;;;32.86
45393;BMP280;31129;44.810;10.334;2023-06-22T11:13:29;100936.06;;;32.86
45393;BMP280;31129;44.810;10.334;2023-06-22T11:15:54;100928.41;;;32.75
45393;BMP280;31129;44.810;10.334;2023-06-22T11:18:20;100926.72;;;32.97
45393;BMP280;31129;44.810;10.334;2023-06-22T11:20:46;100914.25;;;32.88
45393;BMP280;31129;44.810;10.334;2023-06-22T11:23:12;100895.63;;;32.83
45393;BMP280;31129;44.810;10.334;2023-06-22T11:25:38;100897.72;;;32.96
45393;BMP280;31129;44.810;10.334;2023-06-22T11:28:07;100898.72;;;33.16
45393;BMP280;31129;44.810;10.334;2023-06-22T11:30:51;100892.50;;;33.49
45393;BMP280;31129;44.810;10.334;2023-06-22T11:33:26;100886.41;;;33.55
45393;BMP280;31129;44.810;10.334;2023-06-22T11:36:33;100882.50;;;33.62
45393;BMP280;31129;44.810;10.334;2023-06-22T11:50:09;100866.97;;;34.41
45393;BMP280;31129;44.810;10.334;2023-06-22T11:52:37;100862.69;;;34.24
45393;BMP280;31129;44.810;10.334;2023-06-22T11:55:15;100857.94;;;34.29
45393;BMP280;31129;44.810;10.334;2023-06-22T11:58:16;100857.41;;;34.66
45393;BMP280;31129;44.810;10.334;2023-06-22T12:00:45;100854.56;;;34.66
45393;BMP280;31129;44.810;10.334;2023-06-22T12:06:43;100854.16;;;34.73
45393;BMP280;31129;44.810;10.334;2023-06-22T12:09:09;100857.59;;;34.87
45393;BMP280;31129;44.810;10.334;2023-06-22T12:14:51;100848.63;;;34.93
45393;BMP280;31129;44.810;10.334;2023-06-22T12:17:16;100852.72;;;35.08
45393;BMP280;31129;44.810;10.334;2023-06-22T12:19:54;100840.31;;;35.17
45393;BMP280;31129;44.810;10.334;2023-06-22T12:22:23;100837.41;;;35.32
45393;BMP280;31129;44.810;10.334;2023-06-22T12:24:52;100835.34;;;35.35
45393;BMP280;31129;44.810;10.334;2023-06-22T12:27:17;100830.31;;;35.33
45393;BMP280;31129;44.810;10.334;2023-06-22T12:29:54;100830.56;;;35.22
45393;BMP280;31129;44.810;10.334;2023-06-22T12:32:25;100821.09;;;35.15
45393;BMP280;31129;44.810;10.334;2023-06-22T12:35:13;100827.97;;;35.28
45393;BMP280;31129;44.810;10.334;2023-06-22T12:37:42;100822.28;;;35.28
45393;BMP280;31129;44.810;10.334;2023-06-22T12:40:30;100829.47;;;35.48
45393;BMP280;31129;44.810;10.334;2023-06-22T12:43:06;100832.59;;;35.37
45393;BMP280;31129;44.810;10.334;2023-06-22T12:52:14;100839.25;;;35.26
45393;BMP280;31129;44.810;10.334;2023-06-22T12:54:42;100835.75;;;35.65
45393;BMP280;31129;44.810;10.334;2023-06-22T12:57:25;100831.28;;;35.97
45393;BMP280;31129;44.810;10.334;2023-06-22T12:59:55;100831.47;;;36.23
45393;BMP280;31129;44.810;10.334;2023-06-22T13:02:20;100828.81;;;36.48
45393;BMP280;31129;44.810;10.334;2023-06-22T13:04:53;100832.81;;;36.61
45393;BMP280;31129;44.810;10.334;2023-06-22T13:07:18;100826.94;;;36.57
45393;BMP280;31129;44.810;10.334;2023-06-22T13:09:44;100828.63;;;36.23
45393;BMP280;31129;44.810;10.334;2023-06-22T13:12:15;100838.13;;;35.90
45393;BMP280;31129;44.810;10.334;2023-06-22T13:15:01;100842.72;;;35.79
45393;BMP280;31129;44.810;10.334;2023-06-22T13:17:31;100835.22;;;35.50
45393;BMP280;31129;44.810;10.334;2023-06-22T13:19:57;100838.84;;;35.33
45393;BMP280;31129;44.810;10.334;2023-06-22T13:22:26;100834.75;;;35.56
45393;BMP280;31129;44.810;10.334;2023-06-22T13:24:53;100821.38;;;35.41
45393;BMP280;31129;44.810;10.334;2023-06-22T13:27:18;100825.28;;;35.32
45393;BMP280;31129;44.810;10.334;2023-06-22T13:29:44;100825.94;;;35.30
45393;BMP280;31129;44.810;10.334;2023-06-22T13:32:10;100817.09;;;35.22
45393;BMP280;31129;44.810;10.334;2023-06-22T13:34:35;100828.47;;;35.22
45393;BMP280;31129;44.810;10.334;2023-06-22T13:37:02;100828.88;;;35.15
45393;BMP280;31129;44.810;10.334;2023-06-22T13:39:27;100819.31;;;34.88
45393;BMP280;31129;44.810;10.334;2023-06-22T13:41:59;100816.72;;;34.95
45393;BMP280;31129;44.810;10.334;2023-06-22T13:44:48;100824.19;;;34.86
45393;BMP280;31129;44.810;10.334;2023-06-22T13:47:18;100819.13;;;34.84
45393;BMP280;31129;44.810;10.334;2023-06-22T13:49:44;100821.56;;;34.74
45393;BMP280;31129;44.810;10.334;2023-06-22T13:52:52;100819.28;;;34.53
45393;BMP280;31129;44.810;10.334;2023-06-22T13:55:14;100815.06;;;34.72
45393;BMP280;31129;44.810;10.334;2023-06-22T13:58:09;100810.72;;;34.69
45393;BMP280;31129;44.810;10.334;2023-06-22T14:00:35;100801.59;;;34.55
45393;BMP280;31129;44.810;10.334;2023-06-22T14:03:06;100801.66;;;34.57
45393;BMP280;31129;44.810;10.334;2023-06-22T14:05:45;100800.63;;;34.48
45393;BMP280;31129;44.810;10.334;2023-06-22T14:08:11;100802.69;;;34.63
45393;BMP280;31129;44.810;10.334;2023-06-22T14:11:22;100793.25;;;34.59
45393;BMP280;31129;44.810;10.334;2023-06-22T14:14:01;100792.78;;;34.64
45393;BMP280;31129;44.810;10.334;2023-06-22T14:16:52;100793.91;;;34.75
45393;BMP280;31129;44.810;10.334;2023-06-22T14:19:20;100777.44;;;34.71
45393;BMP280;31129;44.810;10.334;2023-06-22T14:21:46;100794.34;;;34.85
45393;BMP280;31129;44.810;10.334;2023-06-22T14:24:11;100790.94;;;34.88
45393;BMP280;31129;44.810;10.334;2023-06-22T14:26:37;100784.69;;;35.10
45393;BMP280;31129;44.810;10.334;2023-06-22T14:29:05;100789.31;;;35.38
45393;BMP280;31129;44.810;10.334;2023-06-22T14:31:34;100787.97;;;35.39
45393;BMP280;31129;44.810;10.334;2023-06-22T14:34:38;100787.22;;;35.21
45393;BMP280;31129;44.810;10.334;2023-06-22T14:38:10;100788.72;;;35.05
45393;BMP280;31129;44.810;10.334;2023-06-22T14:45:22;100784.25;;;34.64
45393;BMP280;31129;44.810;10.334;2023-06-22T14:48:15;100788.50;;;34.63
45393;BMP280;31129;44.810;10.334;2023-06-22T14:51:33;100784.94;;;34.63
45393;BMP280;31129;44.810;10.334;2023-06-22T14:54:14;100784.34;;;34.49
45393;BMP280;31129;44.810;10.334;2023-06-22T14:56:40;100779.94;;;34.46
45393;BMP280;31129;44.810;10.334;2023-06-22T14:59:09;100776.25;;;34.59
45393;BMP280;31129;44.810;10.334;2023-06-22T15:01:37;100774.84;;;34.60
45393;BMP280;31129;44.810;10.334;2023-06-22T15:04:04;100781.66;;;34.53
45393;BMP280;31129;44.810;10.334;2023-06-22T15:06:30;100784.41;;;34.51
45393;BMP280;31129;44.810;10.334;2023-06-22T15:08:59;100767.63;;;34.57
45393;BMP280;31129;44.810;10.334;2023-06-22T15:11:27;100767.31;;;34.49
45393;BMP280;31129;44.810;10.334;2023-06-22T15:13:58;100763.84;;;34.68
45393;BMP280;31129;44.810;10.334;2023-06-22T15:16:24;100757.28;;;34.81
45393;BMP280;31129;44.810;10.334;2023-06-22T15:19:37;100752.56;;;34.87
45393;BMP280;31129;44.810;10.334;2023-06-22T15:22:18;100747.22;;;34.96
45393;BMP280;31129;44.810;10.334;2023-06-22T15:25:15;100746.88;;;34.87
45393;BMP280;31129;44.810;10.334;2023-06-22T15:27:57;100758.91;;;34.86
45393;BMP280;31129;44.810;10.334;2023-06-22T15:31:05;100749.31;;;34.77
45393;BMP280;31129;44.810;10.334;2023-06-22T15:34:09;100751.41;;;34.77
45393;BMP280;31129;44.810;10.334;2023-06-22T15:36:43;100751.13;;;34.69
45393;BMP280;31129;44.810;10.334;2023-06-22T15:39:23;100756.63;;;34.82
45393;BMP280;31129;44.810;10.334;2023-06-22T15:41:57;100752.06;;;34.75
45393;BMP280;31129;44.810;10.334;2023-06-22T15:44:23;100753.38;;;34.72
45393;BMP280;31129;44.810;10.334;2023-06-22T15:46:52;100745.34;;;34.67
45393;BMP280;31129;44.810;10.334;2023-06-22T15:49:18;100737.56;;;34.50
45393;BMP280;31129;44.810;10.334;2023-06-22T15:51:44;100746.81;;;34.68
45393;BMP280;31129;44.810;10.334;2023-06-22T15:54:10;100731.41;;;34.73
45393;BMP280;31129;44.810;10.334;2023-06-22T15:57:02;100720.78;;;34.73
45393;BMP280;31129;44.810;10.334;2023-06-22T15:59:31;100721.44;;;34.54
45393;BMP280;31129;44.810;10.334;2023-06-22T16:01:57;100726.53;;;34.40
45393;BMP280;31129;44.810;10.334;2023-06-22T16:04:23;100721.75;;;34.62
45393;BMP280;31129;44.810;10.334;2023-06-22T16:14:44;100736.13;;;34.66
45393;BMP280;31129;44.810;10.334;2023-06-22T16:17:10;100737.22;;;34.59
45393;BMP280;31129;44.810;10.334;2023-06-22T16:19:38;100739.69;;;34.67
45393;BMP280;31129;44.810;10.334;2023-06-22T16:22:04;100738.72;;;34.78
45393;BMP280;31129;44.810;10.334;2023-06-22T16:24:30;100739.84;;;34.88
45393;BMP280;31129;44.810;10.334;2023-06-22T16:26:55;100733.03;;;34.96
45393;BMP280;31129;44.810;10.334;2023-06-22T16:29:21;100734.31;;;34.92
45393;BMP280;31129;44.810;10.334;2023-06-22T16:31:47;100735.97;;;35.17
45393;BMP280;31129;44.810;10.334;2023-06-22T16:40:25;100734.78;;;36.23
45393;BMP280;31129;44.810;10.334;2023-06-22T16:42:51;100728.06;;;36.36
45393;BMP280;31129;44.810;10.334;2023-06-22T16:45:20;100730.34;;;36.39
45393;BMP280;31129;44.810;10.334;2023-06-22T16:47:47;100735.16;;;36.13
45393;BMP280;31129;44.810;10.334;2023-06-22T16:50:13;100727.00;;;36.03
45393;BMP280;31129;44.810;10.334;2023-06-22T16:53:01;100726.59;;;36.33
45393;BMP280;31129;44.810;10.334;2023-06-22T16:55:37;100734.13;;;36.70
45393;BMP280;31129;44.810;10.334;2023-06-22T16:58:19;100747.69;;;36.93
45393;BMP280;31129;44.810;10.334;2023-06-22T17:01:20;100750.94;;;37.07
45393;BMP280;31129;44.810;10.334;2023-06-22T17:06:35;100748.13;;;36.85
45393;BMP280;31129;44.810;10.334;2023-06-22T17:09:15;100747.41;;;36.61
45393;BMP280;31129;44.810;10.334;2023-06-22T17:11:44;100739.34;;;36.32
45393;BMP280;31129;44.810;10.334;2023-06-22T17:14:23;100740.13;;;35.93
45393;BMP280;31129;44.810;10.334;2023-06-22T17:16:57;100738.41;;;35.64
45393;BMP280;31129;44.810;10.334;2023-06-22T17:19:23;100746.19;;;35.24
45393;BMP280;31129;44.810;10.334;2023-06-22T17:21:49;100751.75;;;35.03
45393;BMP280;31129;44.810;10.334;2023-06-22T17:24:18;100734.00;;;34.84
45393;BMP280;31129;44.810;10.334;2023-06-22T17:26:48;100739.59;;;34.65
45393;BMP280;31129;44.810;10.334;2023-06-22T17:29:14;100740.41;;;34.50
45393;BMP280;31129;44.810;10.334;2023-06-22T17:31:41;100746.59;;;34.28
45393;BMP280;31129;44.810;10.334;2023-06-22T17:34:12;100759.38;;;34.29
45393;BMP280;31129;44.810;10.334;2023-06-22T17:36:59;100752.84;;;34.25
45393;BMP280;31129;44.810;10.334;2023-06-22T17:39:26;100750.19;;;34.29
45393;BMP280;31129;44.810;10.334;2023-06-22T17:41:53;100741.88;;;34.17
45393;BMP280;31129;44.810;10.334;2023-06-22T17:44:21;100749.31;;;34.09
45393;BMP280;31129;44.810;10.334;2023-06-22T17:46:51;100747.78;;;34.06
45393;BMP280;31129;44.810;10.334;2023-06-22T17:49:20;100737.28;;;33.93
45393;BMP280;31129;44.810;10.334;2023-06-22T17:51:50;100743.50;;;33.89
45393;BMP280;31129;44.810;10.334;2023-06-22T17:54:17;100742.41;;;33.80
45393;BMP280;31129;44.810;10.334;2023-06-22T17:56:50;100730.19;;;33.76
45393;BMP280;31129;44.810;10.334;2023-06-22T17:59:19;100722.59;;;33.65
45393;BMP280;31129;44.810;10.334;2023-06-22T18:01:46;100715.84;;;33.56
45393;BMP280;31129;44.810;10.334;2023-06-22T18:04:16;100698.22;;;33.58
45393;BMP280;31129;44.810;10.334;2023-06-22T18:06:47;100696.44;;;33.51
45393;BMP280;31129;44.810;10.334;2023-06-22T18:09:16;100704.78;;;33.47
45393;BMP280;31129;44.810;10.334;2023-06-22T18:11:47;100712.06;;;33.36
45393;BMP280;31129;44.810;10.334;2023-06-22T18:14:15;100720.66;;;33.38
45393;BMP280;31129;44.810;10.334;2023-06-22T18:16:44;100728.97;;;33.34
45393;BMP280;31129;44.810;10.334;2023-06-22T18:19:10;100732.34;;;33.31
45393;BMP280;31129;44.810;10.334;2023-06-22T18:21:42;100737.63;;;33.22
45393;BMP280;31129;44.810;10.334;2023-06-22T18:24:16;100730.81;;;33.12
45393;BMP280;31129;44.810;10.334;2023-06-22T18:26:43;100739.38;;;33.14
45393;BMP280;31129;44.810;10.334;2023-06-22T18:29:09;100741.38;;;33.11
45393;BMP280;31129;44.810;10.334;2023-06-22T18:31:35;100743.81;;;33.03
45393;BMP280;31129;44.810;10.334;2023-06-22T18:34:01;100746.66;;;33.03
45393;BMP280;31129;44.810;10.334;2023-06-22T18:39:31;100728.97;;;32.89
45393;BMP280;31129;44.810;10.334;2023-06-22T18:50:09;100715.94;;;32.82
45393;BMP280;31129;44.810;10.334;2023-06-22T18:52:36;100717.41;;;32.83
45393;BMP280;31129;44.810;10.334;2023-06-22T18:55:05;100706.59;;;32.80
45393;BMP280;31129;44.810;10.334;2023-06-22T18:57:36;100703.59;;;32.76
45393;BMP280;31129;44.810;10.334;2023-06-22T19:00:05;100689.69;;;32.66
45393;BMP280;31129;44.810;10.334;2023-06-22T19:05:19;100702.00;;;32.30
45393;BMP280;31129;44.810;10.334;2023-06-22T19:08:01;100715.00;;;32.21
45393;BMP280;31129;44.810;10.334;2023-06-22T19:10:39;100717.31;;;31.97
45393;BMP280;31129;44.810;10.334;2023-06-22T19:13:29;100714.91;;;31.92
45393;BMP280;31129;44.810;10.334;2023-06-22T19:18:37;100707.56;;;31.73
45393;BMP280;31129;44.810;10.334;2023-06-22T19:23:34;100710.88;;;31.56
45393;BMP280;31129;44.810;10.334;2023-06-22T19:26:03;100720.16;;;31.45
45393;BMP280;31129;44.810;10.334;2023-06-22T19:28:31;100726.94;;;31.40
45393;BMP280;31129;44.810;10.334;2023-06-22T19:31:01;100726.72;;;31.36
45393;BMP280;31129;44.810;10.334;2023-06-22T19:33:27;100720.88;;;31.32
45393;BMP280;31129;44.810;10.334;2023-06-22T19:35:54;100706.75;;;31.32
45393;BMP280;31129;44.810;10.334;2023-06-22T19:38:24;100700.38;;;31.31
45393;BMP280;31129;44.810;10.334;2023-06-22T19:40:51;100692.53;;;31.30
45393;BMP280;31129;44.810;10.334;2023-06-22T19:43:17;100693.47;;;31.34
45393;BMP280;31129;44.810;10.334;2023-06-22T19:45:43;100684.69;;;31.28
45393;BMP280;31129;44.810;10.334;2023-06-22T19:48:14;100681.00;;;31.26
45393;BMP280;31129;44.810;10.334;2023-06-22T19:50:41;100678.91;;;31.26
45393;BMP280;31129;44.810;10.334;2023-06-22T19:53:12;100680.28;;;31.25
45393;BMP280;31129;44.810;10.334;2023-06-22T19:55:40;100660.41;;;31.23
45393;BMP280;31129;44.810;10.334;2023-06-22T19:58:11;100666.59;;;31.20
45393;BMP280;31129;44.810;10.334;2023-06-22T20:00:37;100668.59;;;31.17
45393;BMP280;31129;44.810;10.334;2023-06-22T20:03:08;100671.97;;;31.02
45393;BMP280;31129;44.810;10.334;2023-06-22T20:05:39;100672.00;;;30.90
45393;BMP280;31129;44.810;10.334;2023-06-22T20:08:05;100673.63;;;30.82
45393;BMP280;31129;44.810;10.334;2023-06-22T20:10:36;100676.59;;;30.84
45393;BMP280;31129;44.810;10.334;2023-06-22T20:13:09;100674.09;;;30.90
45393;BMP280;31129;44.810;10.334;2023-06-22T20:15:42;100680.19;;;30.73
45393;BMP280;31129;44.810;10.334;2023-06-22T20:18:09;100682.78;;;30.69
45393;BMP280;31129;44.810;10.334;2023-06-22T20:20:41;100674.59;;;30.61
45393;BMP280;31129;44.810;10.334;2023-06-22T20:23:08;100684.19;;;30.56
45393;BMP280;31129;44.810;10.334;2023-06-22T20:25:36;100679.25;;;30.56
45393;BMP280;31129;44.810;10.334;2023-06-22T20:31:03;100669.97;;;30.42
45393;BMP280;31129;44.810;10.334;2023-06-22T20:33:30;100659.59;;;30.33
45393;BMP280;31129;44.810;10.334;2023-06-22T20:35:56;100661.03;;;30.46
45393;BMP280;31129;44.810;10.334;2023-06-22T20:38:21;100656.84;;;30.47
45393;BMP280;31129;44.810;10.334;2023-06-22T20:40:50;100672.31;;;30.34
45393;BMP280;31129;44.810;10.334;2023-06-22T20:43:16;100677.97;;;30.23
45393;BMP280;31129;44.810;10.334;2023-06-22T20:45:41;100671.38;;;30.18
45393;BMP280;31129;44.810;10.334;2023-06-22T20:48:08;100670.00;;;30.31
45393;BMP280;31129;44.810;10.334;2023-06-22T20:50:34;100654.19;;;30.37
45393;BMP280;31129;44.810;10.334;2023-06-22T20:53:02;100648.06;;;30.41
45393;BMP280;31129;44.810;10.334;2023-06-22T20:55:29;100652.34;;;30.42
45393;BMP280;31129;44.810;10.334;2023-06-22T20:57:55;100645.84;;;30.39
45393;BMP280;31129;44.810;10.334;2023-06-22T21:00:21;100659.34;;;30.29
45393;BMP280;31129;44.810;10.334;2023-06-22T21:02:48;100650.91;;;30.29
45393;BMP280;31129;44.810;10.334;2023-06-22T21:05:16;100654.94;;;30.26
45393;BMP280;31129;44.810;10.334;2023-06-22T21:07:42;100652.75;;;30.25
45393;BMP280;31129;44.810;10.334;2023-06-22T21:10:08;100629.22;;;30.20
45393;BMP280;31129;44.810;10.334;2023-06-22T21:12:33;100624.81;;;30.29
45393;BMP280;31129;44.810;10.334;2023-06-22T21:14:59;100623.59;;;30.20
45393;BMP280;31129;44.810;10.334;2023-06-22T21:17:24;100622.75;;;30.06